»·PEaware :: N2494V KOLM-KYKM

N2494V :: KOLM-KYKM

FLIGHT INFORMATION

Flight Status: Arrived
Operator: Privately registered:
United States
More flights under this callsign
Pilot: Sally S. (18014)
Aircraft: Unknown
(DA62)
More flights by this aircraft type
Origin: KOLM Olympia
United States
Destination: KYKM Yakima Air Term/Mcallister
United States
More flights between these airports :: More routes between these airports
Route:
File this flight plan on PilotEdge
Remarks:
Altitude:
(Current/Filed)
9,500ft
Speed:
(Current/Filed)
165kts
Departed: 08-May-18 10:38 AM
Arrived: 08-May-18 11:20 AM
Distance/Time
Traveled:
100nm/0:42
Distance/Time
To Go:
Arrived

Flight Plot

Page will automatically refresh every two minutes.

Flight plan parsing failed; only flown route is shown


Map Options




Map Legend


Flown Route
Filed Route
Departure Airport
Arrival Airport
Navaid (VOR, NDB)
Fix

Horizontal Profiles

Position Reports

Time Latitude Longitude Heading Altitude Ground
Speed
08-May-18 10:31 46.975741 -122.898845 281 212ft 0kts
08-May-18 10:32 46.975741 -122.898845 281 212ft 0kts
08-May-18 10:33 46.975741 -122.898845 281 212ft 0kts
08-May-18 10:34 46.975741 -122.898845 281 212ft 0kts
08-May-18 10:35 46.975741 -122.898845 281 212ft 0kts
08-May-18 10:36 46.975894 -122.899913 300 212ft 13kts
08-May-18 10:37 46.976164 -122.901301 280 212ft 0kts
08-May-18 10:38 46.975014 -122.902750 191 212ft 45kts
08-May-18 10:39 46.950963 -122.908737 179 1159ft 98kts
08-May-18 10:40 46.930245 -122.884427 133 2318ft 120kts
08-May-18 10:41 46.913674 -122.830067 115 2318ft 159kts
08-May-18 10:42 46.893710 -122.774829 120 2314ft 163kts
08-May-18 10:43 46.874658 -122.719050 100 2785ft 144kts
08-May-18 10:44 46.867189 -122.661116 99 3291ft 146kts
08-May-18 10:45 46.859534 -122.602662 99 3958ft 148kts
08-May-18 10:46 46.852027 -122.545743 99 4564ft 152kts
08-May-18 10:47 46.843958 -122.484870 99 5162ft 155kts
08-May-18 10:48 46.835704 -122.422878 99 5760ft 157kts
08-May-18 10:49 46.827462 -122.361238 100 6348ft 159kts
08-May-18 10:50 46.819560 -122.302381 101 6900ft 161kts
08-May-18 10:51 46.811021 -122.239060 101 7487ft 162kts
08-May-18 10:52 46.802299 -122.174677 102 8080ft 163kts
08-May-18 10:53 46.796096 -122.109239 93 8677ft 165kts
08-May-18 10:54 46.794667 -122.042687 93 9273ft 166kts
08-May-18 10:55 46.793602 -121.975116 93 9483ft 178kts
08-May-18 10:56 46.792465 -121.904345 93 9482ft 182kts
08-May-18 10:57 46.785955 -121.832227 105 9482ft 181kts
08-May-18 10:58 46.774241 -121.761302 105 9482ft 181kts
08-May-18 10:59 46.762649 -121.690564 105 9482ft 181kts
08-May-18 11:00 46.751186 -121.620741 105 9487ft 181kts
08-May-18 11:00 46.741505 -121.562008 105 9493ft 180kts
08-May-18 11:02 46.727861 -121.479582 106 9503ft 179kts
08-May-18 11:02 46.718617 -121.423981 106 9509ft 179kts
08-May-18 11:03 46.706885 -121.353701 106 9510ft 179kts
08-May-18 11:04 46.695538 -121.285988 107 9500ft 183kts
08-May-18 11:06 46.683172 -121.212968 106 8871ft 189kts
08-May-18 11:07 46.667539 -121.142456 118 7893ft 188kts
08-May-18 11:08 46.643484 -121.080276 124 7494ft 162kts
08-May-18 11:09 46.620003 -121.026667 124 7500ft 162kts
08-May-18 11:10 46.593853 -120.968350 124 6703ft 185kts
08-May-18 11:11 46.568721 -120.891502 86 5662ft 185kts
08-May-18 11:12 46.569199 -120.835920 88 5495ft 163kts
08-May-18 11:13 46.568341 -120.770995 95 4717ft 161kts
08-May-18 11:14 46.561246 -120.707578 97 3572ft 154kts
08-May-18 11:15 46.556072 -120.650623 95 2491ft 121kts
08-May-18 11:16 46.557959 -120.604635 78 2213ft 113kts
08-May-18 11:17 46.560958 -120.562755 106 2227ft 97kts
08-May-18 11:18 46.551168 -120.524000 108 1913ft 106kts
08-May-18 11:19 46.565464 -120.531304 289 1125ft 82kts
08-May-18 11:20 46.568814 -120.540080 299 1103ft 12kts
08-May-18 11:21 46.570053 -120.542830 253 1103ft 0kts
08-May-18 11:22 46.570053 -120.542830 253 1103ft 0kts
08-May-18 11:23 46.570053 -120.542830 253 1103ft 0kts
08-May-18 11:24 46.570053 -120.542830 253 1103ft 0kts
08-May-18 11:25 46.570053 -120.542830 253 1103ft 0kts
08-May-18 11:26 46.570053 -120.542830 253 1103ft 0kts

Navigation Log

Ident Type
Flight plan parsing failed, navigation log unavailable